Airfield :







YOU CAN JOIN US ON...

 
LOGIN :

Register | Disclaimer

   EN    FR    IT 

 









Legend :    VFR   Marginal VFR   IFR   Intensive IFR   Very Intensive IFR
Visi :
Ceiling :
>= 8 km
>= 3000ft
5 to 8 km
1000 to 3000 ft
1500m to 5 km
500 to 1000 ft
800 to 1500m
200 to 500 ft
< 800m
< 200 ft
Symbols :   Thunderstorms  Fog  Heavy snow  Heavy precipitations  Wind > 20 kt






- Airport Elevation : 215 ft
- IATA code : XGR


CYLU - Kangiqsualujjuaq (Georges River)

CURRENT METAR :
  • 171900Z 20012G23KT 160V220 12SM -RA BKN010 BKN014 OVC021 13/11 A2936 RMK ST5ST2SC1 CIG RAG SLP948 DENSITY ALT 700FT

EXPIRED METARs :
  • 171824Z 20010G16KT 070V230 12SM -RA SCT003 OVC012 13/11 A2937 RMK ST3ST5 CIG RAG SLP951 DENSITY ALT 700FT
  • 171800Z 17008G16KT 090V200 10SM -RA BCFG BKN003 BKN007 OVC015 12/11 A2938 RMK ST5ST2ST1 CIG RAG SLP954 DENSITY ALT 600FT
  • 171745Z 12009G15KT 8SM -RA BCFG BKN003 BKN007 OVC015 11/10 A2938 RMK ST5ST2ST1 CIG RAG SLP953 DENSITY ALT 400FT
  • 171700Z 15006KT 6SM -RA BR SCT003 BKN010 OVC020 11/10 A2940 RMK ST4ST2SC2 SLP961 DENSITY ALT 400FT
  • 171625Z 13004KT 8SM -RA FEW003 SCT008 BKN014 OVC027 11/10 A2942 RMK ST2ST2ST2SC2 SLP968 DENSITY ALT 400FT

TAF N/A
CZUL FIR / North America



MET'MAP, your aeronautical weather chart ! - Copyright ORBIFLY December 2007 - Disclaimer

ORBIFLY MET'MAP TEAM :

Programming & Development : Alexandra Zaïnal
Concept & original design : Baudouin d'Aumeries
Assistance for programming : Marc-Olivier Méhu
Technical & hardware support : Manuel Goepfert

Contact : metmap@orbifly.com




SOURCES & CREDITS :

   NOAA